Alpnach Air Base LSMA

Flugplatz Daten

Name: Alpnach Air Base

Ident: LSMA

Lat: 46,94390106

Long: 8,284170151

Platzhöhe: 1460 ft

IataCode:

City: Alpnach

Metar

2022/08/10 20:20
LSMA 102020Z AUTO VRB03KT 9999NDV FEW072 22/11 Q1020 RMK

Taf

2022/08/10 17:00
TAF LSMA 101625Z 1017/1123 04009KT CAVOK
TEMPO 1111/1117 9999 FEW060
Gewünschte Webcam nicht vorhanden? Dann fügen Sie eine hinzu. Sie wird dann so schnell wie möglich freigeschaltet
Url: Title: